Highlands Peak, California Weather observations

Data are for observation ending at time listed.
 Day   Time    Ave.   Ave.  Ave.  Vector   Max.   Stn.    Total    Solar   Ave.  
  of    of     Air    Rel.  Wind   Wind    Wind   Baro.  Precip.   Rad.    Soil  
Year   Day     Temp.  Hum.  Speed  Dir.    Gust   Pres.                    Temp. 
2015   (PST)    F      %     mph   deg.    mph     mb.     in.     W/m2     F   
------------------------------------------------------------------------------
 211    0:00   77.3    16    5.2    74      7.7   930.5    0.00       0    88.4
 211    0:10   76.4    18    4.6    98      6.6   930.5    0.00       0    88.3
 211    0:20   77.0    16    2.1   118      3.2   930.6    0.00       0    88.1
 211    0:30   77.7    13    1.9   142      2.6   930.6    0.00       0    87.9
 211    0:40   79.0    11    1.5   130      2.6   930.6    0.00       0    87.6
 211    0:50   79.1    14    3.3    95      6.1   930.5    0.00       0    87.4
 211    1:00   77.9    22    4.8    85      6.7   930.4    0.00       0    87.2
 211    1:10   77.3    22    2.7    45      5.7   930.5    0.00       0    87.0
 211    1:20   76.2    21    1.2   132      3.5   930.5    0.00       0    86.8
 211    1:30   75.7    21    0.9   100      2.0   930.4    0.00       0    86.6
 211    1:40   75.4    17    1.5   162      2.0   930.4    0.00       0    86.5
 211    1:50   75.5    18    3.1   203      4.9   930.4    0.00       0    86.3
 211    2:00   74.3    24    3.3   203      4.6   930.4    0.00       0    86.1
 211    2:10   74.2    23    1.4   177      3.4   930.3    0.00       0    86.0
 211    2:20   74.6    23    1.1   252      2.6   930.3    0.00       0    85.8
 211    2:30   74.1    25    0.3   244      2.0   930.3    0.00       0    85.6
 211    2:40   74.4    21    2.4    63      6.1   930.3    0.00       0    85.5
 211    2:50   74.6    24    3.5    33      7.5   930.2    0.00       0    85.4
 211    3:00   74.6    25    2.3    44      5.3   930.3    0.00       0    85.1
 211    3:10   74.1    26    2.2   214      3.7   930.3    0.00       0    85.0
 211    3:20   73.4    26    1.3   222      2.3   930.3    0.00       0    84.9
 211    3:30   73.1    27    1.7   228      2.7   930.4    0.00       0    84.7
 211    3:40   72.9    27    1.9   196      2.9   930.4    0.00       0    84.6
 211    3:50   72.9    26    0.9   168      2.6   930.4    0.00       0    84.5
 211    4:00   73.5    25    0.1   165      1.2   930.4    0.00       0    84.3
 211    4:10   73.3    26    1.6   262      2.6   930.4    0.00       0    84.1
 211    4:20   72.6    27    0.6   229      2.3   930.5    0.00       0    84.0
 211    4:30   72.7    27    0.3   312      2.0   930.6    0.00       0    83.8
 211    4:40   72.6    27    0.8     4      2.3   930.7    0.00       0    83.7
 211    4:50   72.4    28    1.5   294      2.1   930.8    0.00       0    83.5
 211    5:00   72.1    28    1.2   303      1.8   930.9    0.00       0    83.4
 211    5:10   72.1    28    1.0   320      2.0   930.9    0.00       2    83.2
 211    5:20   72.3    28    1.4   315      2.1   931.0    0.00       5    83.0
 211    5:30   72.3    28    1.3   312      1.8   931.1    0.00       9    82.9
 211    5:40   72.5    28    0.4   311      0.9   931.3    0.00      13    82.8
 211    5:50   72.9    27    0.0     0      0.0   931.3    0.00      18    82.7
 211    6:00   73.6    26    1.3   188      2.1   931.5    0.00      23    82.6
 211    6:10   73.6    26    1.6   145      2.6   931.5    0.00      27    82.5
 211    6:20   73.8    27    2.9   108      3.4   931.6    0.00     152    82.4
 211    6:30   75.2    27    2.9   107      3.4   931.7    0.00     213    82.3
 211    6:40   76.4    27    1.5   101      2.8   931.7    0.00     251    82.1
 211    6:50   78.6    25    0.6   132      1.6   931.8    0.00     287    82.0
 211    7:00   79.4    22    1.3   138      2.0   931.8    0.00     325    82.0
 211    7:10   79.7    22    0.4   191      1.5   931.8    0.00     363    81.9
 211    7:20   79.8    22    1.0   188      2.3   931.8    0.00     390    81.8
 211    7:30   79.3    22    1.6   210      2.5   931.9    0.00     438    81.7
 211    7:40   79.5    22    1.8   208      2.8   932.0    0.00     474    81.6
 211    7:50   79.9    22    1.5   210      2.7   932.1    0.00     510    81.6
 211    8:00   79.7    23    1.4   220      2.6   932.1    0.00     545    81.5
 211    8:10   80.0    23    1.0   232      2.5   932.1    0.00     579    81.5
 211    8:20   80.5    23    1.0   249      3.0   932.1    0.00     611    81.5
 211    8:30   80.3    24    1.6   241      2.9   932.2    0.00     643    81.5
 211    8:40   80.0    25    1.8   239      3.1   932.2    0.00     673    81.6
 211    8:50   80.4    26    1.7   233      3.2   932.2    0.00     703    81.7
 211    9:00   79.8    28    2.1   245      3.7   932.3    0.00     735    81.8
 211    9:10   79.6    30    2.3   250      3.7   932.4    0.00     769    82.0
 211    9:20   79.4    31    2.0   250      4.1   932.4    0.00     801    82.1
 211    9:30   80.1    30    1.9   254      3.8   932.4    0.00     826    82.4
 211    9:40   80.5    30    2.0   282      3.3   932.5    0.00     855    82.6

Return to Highlands Peak graphs page.


Western Regional Climate Center,wrcc@dri.edu